sensor_id;sensor_type;location;lat;lon;timestamp;P1;durP1;ratioP1;P2;durP2;ratioP2
17858;SDS011;35426;30.698;104.050;2022-11-20T00:01:11;153.30;;;77.57;;
17858;SDS011;35426;30.698;104.050;2022-11-20T00:03:51;170.00;;;84.93;;
17858;SDS011;35426;30.698;104.050;2022-11-20T00:06:28;167.87;;;83.07;;
17858;SDS011;35426;30.698;104.050;2022-11-20T00:09:02;164.80;;;84.63;;
17858;SDS011;35426;30.698;104.050;2022-11-20T00:11:38;170.33;;;84.83;;
17858;SDS011;35426;30.698;104.050;2022-11-20T00:14:25;174.63;;;83.83;;
17858;SDS011;35426;30.698;104.050;2022-11-20T00:17:04;179.27;;;85.70;;
17858;SDS011;35426;30.698;104.050;2022-11-20T00:19:45;174.27;;;83.33;;
17858;SDS011;35426;30.698;104.050;2022-11-20T00:22:22;171.33;;;81.60;;
17858;SDS011;35426;30.698;104.050;2022-11-20T00:24:57;174.43;;;84.03;;
17858;SDS011;35426;30.698;104.050;2022-11-20T00:27:42;170.10;;;82.20;;
17858;SDS011;35426;30.698;104.050;2022-11-20T00:30:17;175.00;;;83.20;;
17858;SDS011;35426;30.698;104.050;2022-11-20T00:32:52;170.80;;;84.17;;
17858;SDS011;35426;30.698;104.050;2022-11-20T00:35:28;168.83;;;82.37;;
17858;SDS011;35426;30.698;104.050;2022-11-20T00:38:09;168.37;;;79.63;;
17858;SDS011;35426;30.698;104.050;2022-11-20T00:40:44;170.17;;;83.10;;
17858;SDS011;35426;30.698;104.050;2022-11-20T00:43:24;172.07;;;82.80;;
17858;SDS011;35426;30.698;104.050;2022-11-20T00:46:00;175.70;;;85.07;;
17858;SDS011;35426;30.698;104.050;2022-11-20T00:48:36;180.43;;;85.60;;
17858;SDS011;35426;30.698;104.050;2022-11-20T00:51:16;182.27;;;90.63;;
17858;SDS011;35426;30.698;104.050;2022-11-20T00:53:54;196.00;;;93.23;;
17858;SDS011;35426;30.698;104.050;2022-11-20T00:56:29;200.50;;;93.40;;
17858;SDS011;35426;30.698;104.050;2022-11-20T00:59:21;192.90;;;91.83;;
17858;SDS011;35426;30.698;104.050;2022-11-20T01:01:55;187.03;;;88.83;;
17858;SDS011;35426;30.698;104.050;2022-11-20T01:04:30;201.17;;;96.23;;
17858;SDS011;35426;30.698;104.050;2022-11-20T01:07:05;183.70;;;91.20;;
17858;SDS011;35426;30.698;104.050;2022-11-20T01:09:41;188.33;;;90.13;;
17858;SDS011;35426;30.698;104.050;2022-11-20T01:12:16;185.87;;;88.63;;
17858;SDS011;35426;30.698;104.050;2022-11-20T01:14:51;190.07;;;91.90;;
17858;SDS011;35426;30.698;104.050;2022-11-20T01:17:26;193.90;;;88.87;;
17858;SDS011;35426;30.698;104.050;2022-11-20T01:20:01;184.50;;;89.87;;
17858;SDS011;35426;30.698;104.050;2022-11-20T01:22:36;196.57;;;94.97;;
17858;SDS011;35426;30.698;104.050;2022-11-20T01:25:13;191.13;;;94.10;;
17858;SDS011;35426;30.698;104.050;2022-11-20T01:27:48;188.33;;;94.00;;
17858;SDS011;35426;30.698;104.050;2022-11-20T01:30:22;196.13;;;93.53;;
17858;SDS011;35426;30.698;104.050;2022-11-20T01:32:56;207.97;;;96.03;;
17858;SDS011;35426;30.698;104.050;2022-11-20T01:35:30;192.77;;;94.70;;
17858;SDS011;35426;30.698;104.050;2022-11-20T01:38:05;199.07;;;93.43;;
17858;SDS011;35426;30.698;104.050;2022-11-20T01:40:42;190.53;;;94.37;;
17858;SDS011;35426;30.698;104.050;2022-11-20T01:43:22;182.50;;;94.03;;
17858;SDS011;35426;30.698;104.050;2022-11-20T01:46:15;205.03;;;98.23;;
17858;SDS011;35426;30.698;104.050;2022-11-20T01:48:51;199.07;;;96.50;;
17858;SDS011;35426;30.698;104.050;2022-11-20T01:51:31;201.17;;;96.07;;
17858;SDS011;35426;30.698;104.050;2022-11-20T01:54:15;185.17;;;95.40;;
17858;SDS011;35426;30.698;104.050;2022-11-20T01:56:57;207.50;;;97.83;;
17858;SDS011;35426;30.698;104.050;2022-11-20T01:59:33;203.27;;;98.13;;
17858;SDS011;35426;30.698;104.050;2022-11-20T02:02:19;197.27;;;97.70;;
17858;SDS011;35426;30.698;104.050;2022-11-20T02:04:55;203.10;;;99.27;;
17858;SDS011;35426;30.698;104.050;2022-11-20T02:07:33;193.07;;;101.50;;
17858;SDS011;35426;30.698;104.050;2022-11-20T02:10:08;200.70;;;101.37;;
17858;SDS011;35426;30.698;104.050;2022-11-20T02:12:46;194.93;;;100.17;;
17858;SDS011;35426;30.698;104.050;2022-11-20T02:15:46;195.47;;;100.13;;
17858;SDS011;35426;30.698;104.050;2022-11-20T02:18:27;200.43;;;100.70;;
17858;SDS011;35426;30.698;104.050;2022-11-20T02:21:03;194.00;;;98.77;;
17858;SDS011;35426;30.698;104.050;2022-11-20T02:23:53;191.13;;;97.47;;
17858;SDS011;35426;30.698;104.050;2022-11-20T02:26:34;194.07;;;98.33;;
17858;SDS011;35426;30.698;104.050;2022-11-20T02:29:14;192.57;;;96.27;;
17858;SDS011;35426;30.698;104.050;2022-11-20T02:31:56;191.20;;;95.97;;
17858;SDS011;35426;30.698;104.050;2022-11-20T02:34:33;186.93;;;96.93;;
17858;SDS011;35426;30.698;104.050;2022-11-20T02:37:08;182.53;;;95.97;;
17858;SDS011;35426;30.698;104.050;2022-11-20T02:40:05;184.37;;;95.77;;
17858;SDS011;35426;30.698;104.050;2022-11-20T02:42:41;191.80;;;96.17;;
17858;SDS011;35426;30.698;104.050;2022-11-20T02:45:15;178.00;;;94.13;;
17858;SDS011;35426;30.698;104.050;2022-11-20T02:47:50;180.23;;;93.93;;
17858;SDS011;35426;30.698;104.050;2022-11-20T02:50:24;178.20;;;90.00;;
17858;SDS011;35426;30.698;104.050;2022-11-20T02:52:59;178.80;;;94.07;;
17858;SDS011;35426;30.698;104.050;2022-11-20T02:55:40;181.10;;;93.40;;
17858;SDS011;35426;30.698;104.050;2022-11-20T02:58:15;192.83;;;95.03;;
17858;SDS011;35426;30.698;104.050;2022-11-20T03:00:50;187.97;;;96.47;;
17858;SDS011;35426;30.698;104.050;2022-11-20T03:03:25;179.23;;;93.10;;
17858;SDS011;35426;30.698;104.050;2022-11-20T03:05:59;188.27;;;95.37;;
17858;SDS011;35426;30.698;104.050;2022-11-20T03:08:34;185.77;;;94.50;;
17858;SDS011;35426;30.698;104.050;2022-11-20T03:11:11;191.93;;;92.87;;
17858;SDS011;35426;30.698;104.050;2022-11-20T03:13:46;189.43;;;94.27;;
17858;SDS011;35426;30.698;104.050;2022-11-20T03:16:21;177.47;;;95.07;;
17858;SDS011;35426;30.698;104.050;2022-11-20T03:18:56;190.50;;;95.10;;
17858;SDS011;35426;30.698;104.050;2022-11-20T03:21:30;185.20;;;97.53;;
17858;SDS011;35426;30.698;104.050;2022-11-20T03:24:10;167.87;;;91.37;;
17858;SDS011;35426;30.698;104.050;2022-11-20T03:26:47;181.87;;;94.17;;
17858;SDS011;35426;30.698;104.050;2022-11-20T03:29:21;176.00;;;93.90;;
17858;SDS011;35426;30.698;104.050;2022-11-20T03:31:55;180.60;;;92.37;;
17858;SDS011;35426;30.698;104.050;2022-11-20T03:34:30;173.73;;;93.33;;
17858;SDS011;35426;30.698;104.050;2022-11-20T03:37:07;172.87;;;88.83;;
17858;SDS011;35426;30.698;104.050;2022-11-20T03:39:42;175.87;;;90.10;;
17858;SDS011;35426;30.698;104.050;2022-11-20T03:42:38;174.17;;;89.20;;
17858;SDS011;35426;30.698;104.050;2022-11-20T03:45:18;175.40;;;89.23;;
17858;SDS011;35426;30.698;104.050;2022-11-20T03:47:53;165.23;;;87.63;;
17858;SDS011;35426;30.698;104.050;2022-11-20T03:50:35;165.00;;;87.23;;
17858;SDS011;35426;30.698;104.050;2022-11-20T03:53:09;166.33;;;89.57;;
17858;SDS011;35426;30.698;104.050;2022-11-20T03:55:44;157.90;;;85.30;;
17858;SDS011;35426;30.698;104.050;2022-11-20T03:58:24;165.37;;;82.60;;
17858;SDS011;35426;30.698;104.050;2022-11-20T04:01:04;155.83;;;84.57;;
17858;SDS011;35426;30.698;104.050;2022-11-20T04:03:40;149.07;;;84.47;;
17858;SDS011;35426;30.698;104.050;2022-11-20T04:06:16;162.00;;;86.53;;
17858;SDS011;35426;30.698;104.050;2022-11-20T04:09:10;164.10;;;82.03;;
17858;SDS011;35426;30.698;104.050;2022-11-20T04:11:45;151.63;;;86.63;;
17858;SDS011;35426;30.698;104.050;2022-11-20T04:14:22;161.47;;;84.57;;
17858;SDS011;35426;30.698;104.050;2022-11-20T04:16:56;157.60;;;88.03;;
17858;SDS011;35426;30.698;104.050;2022-11-20T04:19:31;149.70;;;84.67;;
17858;SDS011;35426;30.698;104.050;2022-11-20T04:22:06;158.53;;;82.73;;
17858;SDS011;35426;30.698;104.050;2022-11-20T04:24:42;151.27;;;81.97;;
17858;SDS011;35426;30.698;104.050;2022-11-20T04:27:16;159.67;;;85.73;;
17858;SDS011;35426;30.698;104.050;2022-11-20T04:29:52;156.63;;;85.87;;
17858;SDS011;35426;30.698;104.050;2022-11-20T04:32:27;149.23;;;81.63;;
17858;SDS011;35426;30.698;104.050;2022-11-20T04:35:05;158.83;;;86.33;;
17858;SDS011;35426;30.698;104.050;2022-11-20T04:37:43;153.23;;;84.17;;
17858;SDS011;35426;30.698;104.050;2022-11-20T04:40:24;150.07;;;85.03;;
17858;SDS011;35426;30.698;104.050;2022-11-20T04:43:08;149.73;;;83.10;;
17858;SDS011;35426;30.698;104.050;2022-11-20T04:45:53;150.73;;;82.60;;
17858;SDS011;35426;30.698;104.050;2022-11-20T04:48:29;138.30;;;79.07;;
17858;SDS011;35426;30.698;104.050;2022-11-20T04:51:04;141.43;;;79.77;;
17858;SDS011;35426;30.698;104.050;2022-11-20T04:53:44;152.77;;;83.73;;
17858;SDS011;35426;30.698;104.050;2022-11-20T04:56:19;143.60;;;78.27;;
17858;SDS011;35426;30.698;104.050;2022-11-20T04:58:54;124.73;;;72.57;;
17858;SDS011;35426;30.698;104.050;2022-11-20T05:01:34;126.30;;;75.03;;
17858;SDS011;35426;30.698;104.050;2022-11-20T05:04:16;129.10;;;75.43;;
17858;SDS011;35426;30.698;104.050;2022-11-20T05:06:51;135.63;;;77.27;;
17858;SDS011;35426;30.698;104.050;2022-11-20T05:09:29;130.00;;;75.63;;
17858;SDS011;35426;30.698;104.050;2022-11-20T05:12:03;139.03;;;78.23;;
17858;SDS011;35426;30.698;104.050;2022-11-20T05:14:42;136.60;;;76.90;;
17858;SDS011;35426;30.698;104.050;2022-11-20T05:17:30;137.87;;;78.07;;
17858;SDS011;35426;30.698;104.050;2022-11-20T05:20:05;136.63;;;78.33;;
17858;SDS011;35426;30.698;104.050;2022-11-20T05:22:41;127.03;;;73.07;;
17858;SDS011;35426;30.698;104.050;2022-11-20T05:25:16;134.97;;;74.80;;
17858;SDS011;35426;30.698;104.050;2022-11-20T05:27:52;132.73;;;76.30;;
17858;SDS011;35426;30.698;104.050;2022-11-20T05:30:27;136.53;;;75.37;;
17858;SDS011;35426;30.698;104.050;2022-11-20T05:33:04;133.50;;;75.13;;
17858;SDS011;35426;30.698;104.050;2022-11-20T05:35:38;133.97;;;77.77;;
17858;SDS011;35426;30.698;104.050;2022-11-20T05:38:13;138.30;;;78.17;;
17858;SDS011;35426;30.698;104.050;2022-11-20T05:40:47;130.93;;;74.57;;
17858;SDS011;35426;30.698;104.050;2022-11-20T05:43:25;135.43;;;74.77;;
17858;SDS011;35426;30.698;104.050;2022-11-20T05:46:00;129.07;;;74.53;;
17858;SDS011;35426;30.698;104.050;2022-11-20T05:48:40;134.93;;;74.37;;
17858;SDS011;35426;30.698;104.050;2022-11-20T05:51:17;127.80;;;73.07;;
17858;SDS011;35426;30.698;104.050;2022-11-20T05:53:52;129.60;;;72.77;;
17858;SDS011;35426;30.698;104.050;2022-11-20T05:56:30;131.03;;;72.83;;
17858;SDS011;35426;30.698;104.050;2022-11-20T05:59:04;137.87;;;72.90;;
17858;SDS011;35426;30.698;104.050;2022-11-20T06:01:39;138.80;;;74.93;;
17858;SDS011;35426;30.698;104.050;2022-11-20T06:04:16;132.50;;;74.53;;
17858;SDS011;35426;30.698;104.050;2022-11-20T06:06:50;127.63;;;73.97;;
17858;SDS011;35426;30.698;104.050;2022-11-20T06:09:28;125.30;;;73.77;;
17858;SDS011;35426;30.698;104.050;2022-11-20T06:12:03;132.63;;;73.27;;
17858;SDS011;35426;30.698;104.050;2022-11-20T06:14:41;124.83;;;71.87;;
17858;SDS011;35426;30.698;104.050;2022-11-20T06:17:17;137.97;;;74.43;;
17858;SDS011;35426;30.698;104.050;2022-11-20T06:19:53;135.53;;;73.93;;
17858;SDS011;35426;30.698;104.050;2022-11-20T06:23:09;130.00;;;71.43;;
17858;SDS011;35426;30.698;104.050;2022-11-20T06:25:44;129.13;;;72.70;;
17858;SDS011;35426;30.698;104.050;2022-11-20T06:28:20;125.47;;;70.40;;
17858;SDS011;35426;30.698;104.050;2022-11-20T06:30:54;127.53;;;72.83;;
17858;SDS011;35426;30.698;104.050;2022-11-20T06:33:29;126.70;;;70.70;;
17858;SDS011;35426;30.698;104.050;2022-11-20T06:36:20;135.40;;;70.80;;
17858;SDS011;35426;30.698;104.050;2022-11-20T06:38:56;127.43;;;70.13;;
17858;SDS011;35426;30.698;104.050;2022-11-20T06:41:33;138.43;;;74.33;;
17858;SDS011;35426;30.698;104.050;2022-11-20T06:44:07;132.60;;;74.77;;
17858;SDS011;35426;30.698;104.050;2022-11-20T06:46:42;129.97;;;72.87;;
17858;SDS011;35426;30.698;104.050;2022-11-20T06:49:19;127.77;;;74.07;;
17858;SDS011;35426;30.698;104.050;2022-11-20T06:52:00;133.07;;;70.97;;
17858;SDS011;35426;30.698;104.050;2022-11-20T06:54:34;134.03;;;72.03;;
17858;SDS011;35426;30.698;104.050;2022-11-20T06:57:08;133.83;;;72.20;;
17858;SDS011;35426;30.698;104.050;2022-11-20T06:59:43;127.40;;;71.67;;
17858;SDS011;35426;30.698;104.050;2022-11-20T07:02:28;125.40;;;72.70;;
17858;SDS011;35426;30.698;104.050;2022-11-20T07:05:02;127.67;;;72.10;;
17858;SDS011;35426;30.698;104.050;2022-11-20T07:07:38;140.20;;;74.40;;
17858;SDS011;35426;30.698;104.050;2022-11-20T07:10:13;135.10;;;74.00;;
17858;SDS011;35426;30.698;104.050;2022-11-20T07:12:49;132.27;;;71.33;;
17858;SDS011;35426;30.698;104.050;2022-11-20T07:15:24;128.93;;;71.00;;
17858;SDS011;35426;30.698;104.050;2022-11-20T07:18:02;128.03;;;70.50;;
17858;SDS011;35426;30.698;104.050;2022-11-20T07:20:36;136.83;;;72.87;;
17858;SDS011;35426;30.698;104.050;2022-11-20T07:23:12;130.67;;;71.93;;
17858;SDS011;35426;30.698;104.050;2022-11-20T07:25:46;134.50;;;72.57;;
17858;SDS011;35426;30.698;104.050;2022-11-20T07:28:24;130.83;;;72.67;;
17858;SDS011;35426;30.698;104.050;2022-11-20T07:30:58;138.60;;;76.30;;
17858;SDS011;35426;30.698;104.050;2022-11-20T07:33:33;137.70;;;72.90;;
17858;SDS011;35426;30.698;104.050;2022-11-20T07:36:11;142.27;;;75.30;;
17858;SDS011;35426;30.698;104.050;2022-11-20T07:38:47;134.00;;;72.57;;
17858;SDS011;35426;30.698;104.050;2022-11-20T07:41:22;146.70;;;73.87;;
17858;SDS011;35426;30.698;104.050;2022-11-20T07:43:57;127.97;;;70.70;;
17858;SDS011;35426;30.698;104.050;2022-11-20T07:46:35;136.50;;;73.03;;
17858;SDS011;35426;30.698;104.050;2022-11-20T07:49:11;139.87;;;73.67;;
17858;SDS011;35426;30.698;104.050;2022-11-20T07:51:45;137.70;;;73.60;;
17858;SDS011;35426;30.698;104.050;2022-11-20T07:54:32;138.23;;;71.50;;
17858;SDS011;35426;30.698;104.050;2022-11-20T07:57:06;138.17;;;75.87;;
17858;SDS011;35426;30.698;104.050;2022-11-20T07:59:55;134.83;;;73.57;;
17858;SDS011;35426;30.698;104.050;2022-11-20T08:02:38;141.60;;;73.47;;
17858;SDS011;35426;30.698;104.050;2022-11-20T08:05:13;136.73;;;75.67;;
17858;SDS011;35426;30.698;104.050;2022-11-20T08:07:48;141.93;;;74.93;;
17858;SDS011;35426;30.698;104.050;2022-11-20T08:10:25;130.87;;;72.70;;
17858;SDS011;35426;30.698;104.050;2022-11-20T08:12:59;131.57;;;70.60;;
17858;SDS011;35426;30.698;104.050;2022-11-20T08:15:50;133.00;;;69.70;;
17858;SDS011;35426;30.698;104.050;2022-11-20T08:18:25;133.50;;;70.80;;
17858;SDS011;35426;30.698;104.050;2022-11-20T08:21:04;130.30;;;71.60;;
17858;SDS011;35426;30.698;104.050;2022-11-20T08:23:38;124.90;;;68.93;;
17858;SDS011;35426;30.698;104.050;2022-11-20T08:26:16;136.33;;;71.37;;
17858;SDS011;35426;30.698;104.050;2022-11-20T08:29:01;135.80;;;72.00;;
17858;SDS011;35426;30.698;104.050;2022-11-20T08:31:36;133.63;;;72.30;;
17858;SDS011;35426;30.698;104.050;2022-11-20T08:34:10;139.97;;;71.87;;
17858;SDS011;35426;30.698;104.050;2022-11-20T08:36:46;131.43;;;72.50;;
17858;SDS011;35426;30.698;104.050;2022-11-20T08:39:33;133.53;;;72.17;;
17858;SDS011;35426;30.698;104.050;2022-11-20T08:42:09;138.90;;;71.80;;
17858;SDS011;35426;30.698;104.050;2022-11-20T08:44:43;132.70;;;70.80;;
17858;SDS011;35426;30.698;104.050;2022-11-20T08:47:19;142.20;;;74.67;;
17858;SDS011;35426;30.698;104.050;2022-11-20T08:49:54;139.53;;;73.57;;
17858;SDS011;35426;30.698;104.050;2022-11-20T08:52:32;148.17;;;73.97;;
17858;SDS011;35426;30.698;104.050;2022-11-20T08:55:07;140.00;;;72.80;;
17858;SDS011;35426;30.698;104.050;2022-11-20T08:57:44;139.97;;;74.20;;
17858;SDS011;35426;30.698;104.050;2022-11-20T09:00:19;139.80;;;73.53;;
17858;SDS011;35426;30.698;104.050;2022-11-20T09:02:53;147.33;;;75.53;;
17858;SDS011;35426;30.698;104.050;2022-11-20T09:05:30;139.90;;;74.43;;
17858;SDS011;35426;30.698;104.050;2022-11-20T09:08:09;135.43;;;72.80;;
17858;SDS011;35426;30.698;104.050;2022-11-20T09:10:46;138.73;;;73.70;;
17858;SDS011;35426;30.698;104.050;2022-11-20T09:13:27;145.63;;;75.93;;
17858;SDS011;35426;30.698;104.050;2022-11-20T09:16:03;146.13;;;75.10;;
17858;SDS011;35426;30.698;104.050;2022-11-20T09:18:40;151.13;;;76.13;;
17858;SDS011;35426;30.698;104.050;2022-11-20T09:21:29;146.90;;;76.13;;
17858;SDS011;35426;30.698;104.050;2022-11-20T09:24:05;143.27;;;74.80;;
17858;SDS011;35426;30.698;104.050;2022-11-20T09:26:39;143.93;;;76.83;;
17858;SDS011;35426;30.698;104.050;2022-11-20T09:29:16;152.57;;;78.67;;
17858;SDS011;35426;30.698;104.050;2022-11-20T09:31:51;147.40;;;76.70;;
17858;SDS011;35426;30.698;104.050;2022-11-20T09:34:26;154.03;;;78.87;;
17858;SDS011;35426;30.698;104.050;2022-11-20T09:37:00;145.67;;;77.23;;
17858;SDS011;35426;30.698;104.050;2022-11-20T09:39:39;153.70;;;78.80;;
17858;SDS011;35426;30.698;104.050;2022-11-20T09:42:23;154.40;;;80.67;;
17858;SDS011;35426;30.698;104.050;2022-11-20T09:45:33;162.37;;;84.43;;
17858;SDS011;35426;30.698;104.050;2022-11-20T09:51:36;159.13;;;80.20;;
17858;SDS011;35426;30.698;104.050;2022-11-20T09:54:17;158.10;;;81.07;;
17858;SDS011;35426;30.698;104.050;2022-11-20T09:56:53;155.37;;;79.43;;
17858;SDS011;35426;30.698;104.050;2022-11-20T09:59:40;145.97;;;79.97;;
17858;SDS011;35426;30.698;104.050;2022-11-20T10:02:24;159.97;;;80.23;;
17858;SDS011;35426;30.698;104.050;2022-11-20T10:05:03;158.00;;;78.50;;
17858;SDS011;35426;30.698;104.050;2022-11-20T10:07:43;166.40;;;82.30;;
17858;SDS011;35426;30.698;104.050;2022-11-20T10:10:22;162.73;;;81.60;;
17858;SDS011;35426;30.698;104.050;2022-11-20T10:13:09;172.87;;;81.30;;
17858;SDS011;35426;30.698;104.050;2022-11-20T10:15:55;156.97;;;80.67;;
17858;SDS011;35426;30.698;104.050;2022-11-20T10:18:42;171.07;;;83.87;;
17858;SDS011;35426;30.698;104.050;2022-11-20T10:21:27;165.83;;;83.20;;
17858;SDS011;35426;30.698;104.050;2022-11-20T10:24:25;164.23;;;81.70;;
17858;SDS011;35426;30.698;104.050;2022-11-20T10:27:21;161.00;;;83.00;;
17858;SDS011;35426;30.698;104.050;2022-11-20T10:30:08;158.90;;;82.63;;
17858;SDS011;35426;30.698;104.050;2022-11-20T10:32:45;172.33;;;85.07;;
17858;SDS011;35426;30.698;104.050;2022-11-20T10:35:26;161.90;;;81.20;;
17858;SDS011;35426;30.698;104.050;2022-11-20T10:38:08;161.50;;;83.40;;
17858;SDS011;35426;30.698;104.050;2022-11-20T10:40:49;169.77;;;82.40;;
17858;SDS011;35426;30.698;104.050;2022-11-20T10:43:51;168.33;;;85.47;;
17858;SDS011;35426;30.698;104.050;2022-11-20T10:46:46;164.60;;;85.70;;
17858;SDS011;35426;30.698;104.050;2022-11-20T10:49:21;163.80;;;84.60;;
17858;SDS011;35426;30.698;104.050;2022-11-20T10:51:59;182.63;;;88.03;;
17858;SDS011;35426;30.698;104.050;2022-11-20T10:54:43;176.33;;;85.87;;
17858;SDS011;35426;30.698;104.050;2022-11-20T10:57:31;175.37;;;87.27;;
17858;SDS011;35426;30.698;104.050;2022-11-20T11:00:19;175.57;;;86.50;;
17858;SDS011;35426;30.698;104.050;2022-11-20T11:03:07;168.27;;;85.50;;
17858;SDS011;35426;30.698;104.050;2022-11-20T11:05:54;169.50;;;85.50;;
17858;SDS011;35426;30.698;104.050;2022-11-20T11:08:37;171.50;;;86.70;;
17858;SDS011;35426;30.698;104.050;2022-11-20T11:11:17;177.27;;;87.47;;
17858;SDS011;35426;30.698;104.050;2022-11-20T11:13:54;177.73;;;87.53;;
17858;SDS011;35426;30.698;104.050;2022-11-20T11:16:44;177.30;;;88.63;;
17858;SDS011;35426;30.698;104.050;2022-11-20T11:19:26;186.30;;;88.53;;
17858;SDS011;35426;30.698;104.050;2022-11-20T11:22:01;173.33;;;87.97;;
17858;SDS011;35426;30.698;104.050;2022-11-20T11:24:53;174.30;;;89.13;;
17858;SDS011;35426;30.698;104.050;2022-11-20T11:27:45;173.80;;;86.17;;
17858;SDS011;35426;30.698;104.050;2022-11-20T11:30:25;183.83;;;88.97;;
17858;SDS011;35426;30.698;104.050;2022-11-20T11:33:04;174.23;;;87.20;;
17858;SDS011;35426;30.698;104.050;2022-11-20T11:35:44;174.57;;;86.67;;
17858;SDS011;35426;30.698;104.050;2022-11-20T11:38:29;169.10;;;87.30;;
17858;SDS011;35426;30.698;104.050;2022-11-20T11:41:09;169.23;;;83.37;;
17858;SDS011;35426;30.698;104.050;2022-11-20T11:43:53;165.03;;;82.67;;
17858;SDS011;35426;30.698;104.050;2022-11-20T11:46:49;160.87;;;80.50;;
17858;SDS011;35426;30.698;104.050;2022-11-20T11:49:28;160.80;;;83.23;;
17858;SDS011;35426;30.698;104.050;2022-11-20T11:52:09;161.67;;;79.67;;
17858;SDS011;35426;30.698;104.050;2022-11-20T11:54:48;160.43;;;80.07;;
17858;SDS011;35426;30.698;104.050;2022-11-20T11:57:28;162.53;;;78.23;;
17858;SDS011;35426;30.698;104.050;2022-11-20T12:00:12;153.87;;;77.80;;
17858;SDS011;35426;30.698;104.050;2022-11-20T12:02:53;162.43;;;81.50;;
17858;SDS011;35426;30.698;104.050;2022-11-20T12:05:40;159.77;;;79.20;;
17858;SDS011;35426;30.698;104.050;2022-11-20T12:08:18;163.67;;;79.20;;
17858;SDS011;35426;30.698;104.050;2022-11-20T12:10:57;147.80;;;73.83;;
17858;SDS011;35426;30.698;104.050;2022-11-20T12:13:40;148.03;;;73.17;;
17858;SDS011;35426;30.698;104.050;2022-11-20T12:16:19;141.63;;;72.43;;
17858;SDS011;35426;30.698;104.050;2022-11-20T12:18:55;152.27;;;73.17;;
17858;SDS011;35426;30.698;104.050;2022-11-20T12:21:32;150.57;;;75.37;;
17858;SDS011;35426;30.698;104.050;2022-11-20T12:27:22;147.07;;;73.57;;
17858;SDS011;35426;30.698;104.050;2022-11-20T12:30:19;148.37;;;72.53;;
17858;SDS011;35426;30.698;104.050;2022-11-20T12:33:04;139.40;;;71.27;;
17858;SDS011;35426;30.698;104.050;2022-11-20T12:36:08;142.67;;;75.00;;
17858;SDS011;35426;30.698;104.050;2022-11-20T12:38:55;161.37;;;75.77;;
17858;SDS011;35426;30.698;104.050;2022-11-20T12:42:00;143.77;;;73.60;;
17858;SDS011;35426;30.698;104.050;2022-11-20T12:45:50;152.37;;;75.00;;
17858;SDS011;35426;30.698;104.050;2022-11-20T12:48:49;155.70;;;76.90;;
17858;SDS011;35426;30.698;104.050;2022-11-20T12:51:58;160.90;;;77.20;;
17858;SDS011;35426;30.698;104.050;2022-11-20T12:58:11;153.87;;;75.63;;
17858;SDS011;35426;30.698;104.050;2022-11-20T13:01:00;152.17;;;73.30;;
17858;SDS011;35426;30.698;104.050;2022-11-20T13:04:12;155.10;;;76.00;;
17858;SDS011;35426;30.698;104.050;2022-11-20T13:07:06;153.10;;;74.87;;
17858;SDS011;35426;30.698;104.050;2022-11-20T13:09:43;155.87;;;73.73;;
17858;SDS011;35426;30.698;104.050;2022-11-20T13:12:24;155.63;;;74.57;;
17858;SDS011;35426;30.698;104.050;2022-11-20T13:15:04;156.80;;;72.93;;
17858;SDS011;35426;30.698;104.050;2022-11-20T13:17:54;152.63;;;73.67;;
17858;SDS011;35426;30.698;104.050;2022-11-20T13:20:32;155.83;;;76.30;;
17858;SDS011;35426;30.698;104.050;2022-11-20T13:23:10;163.23;;;77.20;;
17858;SDS011;35426;30.698;104.050;2022-11-20T13:26:05;157.47;;;75.07;;
17858;SDS011;35426;30.698;104.050;2022-11-20T13:28:59;156.47;;;74.80;;
17858;SDS011;35426;30.698;104.050;2022-11-20T13:31:42;153.23;;;74.93;;
17858;SDS011;35426;30.698;104.050;2022-11-20T13:34:25;154.30;;;75.67;;
17858;SDS011;35426;30.698;104.050;2022-11-20T13:37:05;152.03;;;74.87;;
17858;SDS011;35426;30.698;104.050;2022-11-20T13:40:04;154.63;;;73.37;;
17858;SDS011;35426;30.698;104.050;2022-11-20T13:42:54;146.50;;;74.13;;
17858;SDS011;35426;30.698;104.050;2022-11-20T13:45:34;154.10;;;73.23;;
17858;SDS011;35426;30.698;104.050;2022-11-20T13:48:18;157.10;;;75.37;;
17858;SDS011;35426;30.698;104.050;2022-11-20T13:51:12;148.20;;;72.37;;
17858;SDS011;35426;30.698;104.050;2022-11-20T13:54:11;151.33;;;74.13;;
17858;SDS011;35426;30.698;104.050;2022-11-20T13:56:58;159.50;;;74.37;;
17858;SDS011;35426;30.698;104.050;2022-11-20T13:59:42;160.03;;;75.53;;
17858;SDS011;35426;30.698;104.050;2022-11-20T14:02:37;140.57;;;70.80;;
17858;SDS011;35426;30.698;104.050;2022-11-20T14:05:16;152.23;;;74.93;;
17858;SDS011;35426;30.698;104.050;2022-11-20T14:07:55;151.83;;;76.13;;
17858;SDS011;35426;30.698;104.050;2022-11-20T14:10:32;154.23;;;73.93;;
17858;SDS011;35426;30.698;104.050;2022-11-20T14:13:15;154.90;;;73.53;;
17858;SDS011;35426;30.698;104.050;2022-11-20T14:15:56;156.53;;;74.50;;
17858;SDS011;35426;30.698;104.050;2022-11-20T14:18:35;157.10;;;76.97;;
17858;SDS011;35426;30.698;104.050;2022-11-20T14:21:21;154.93;;;76.43;;
17858;SDS011;35426;30.698;104.050;2022-11-20T14:24:06;154.30;;;75.53;;
17858;SDS011;35426;30.698;104.050;2022-11-20T14:26:44;149.43;;;76.33;;
17858;SDS011;35426;30.698;104.050;2022-11-20T14:29:23;149.40;;;75.13;;
17858;SDS011;35426;30.698;104.050;2022-11-20T14:32:04;154.00;;;75.03;;
17858;SDS011;35426;30.698;104.050;2022-11-20T14:34:39;156.10;;;74.80;;
17858;SDS011;35426;30.698;104.050;2022-11-20T14:37:18;143.17;;;74.30;;
17858;SDS011;35426;30.698;104.050;2022-11-20T14:39:57;150.73;;;75.03;;
17858;SDS011;35426;30.698;104.050;2022-11-20T14:42:37;146.27;;;73.83;;
17858;SDS011;35426;30.698;104.050;2022-11-20T14:45:20;137.07;;;70.30;;
17858;SDS011;35426;30.698;104.050;2022-11-20T14:47:57;141.93;;;70.80;;
17858;SDS011;35426;30.698;104.050;2022-11-20T14:50:32;141.00;;;71.63;;
17858;SDS011;35426;30.698;104.050;2022-11-20T14:53:11;133.77;;;67.30;;
17858;SDS011;35426;30.698;104.050;2022-11-20T14:56:00;144.37;;;69.33;;
17858;SDS011;35426;30.698;104.050;2022-11-20T14:58:35;141.37;;;68.73;;
17858;SDS011;35426;30.698;104.050;2022-11-20T15:01:12;140.10;;;69.57;;
17858;SDS011;35426;30.698;104.050;2022-11-20T15:03:47;137.43;;;68.40;;
17858;SDS011;35426;30.698;104.050;2022-11-20T15:06:48;130.33;;;67.03;;